createdAt,value
2022-08-23T00:01:39.351Z,21.50
2022-08-23T00:04:11.547Z,21.50
2022-08-23T00:06:39.458Z,21.50
2022-08-23T00:09:06.574Z,21.40
2022-08-23T00:11:45.115Z,21.40
2022-08-23T00:14:18.163Z,21.30
2022-08-23T00:16:45.720Z,21.30
2022-08-23T00:19:16.666Z,21.30
2022-08-23T00:21:44.751Z,21.30
2022-08-23T00:24:12.777Z,21.30
2022-08-23T00:27:02.722Z,21.20
2022-08-23T00:29:33.189Z,21.20
2022-08-23T00:32:00.572Z,21.10
2022-08-23T00:34:28.323Z,21.10
2022-08-23T00:36:56.622Z,21.10
2022-08-23T00:39:23.906Z,21.10
2022-08-23T00:41:52.005Z,21.10
2022-08-23T00:44:40.377Z,21.20
2022-08-23T00:47:27.996Z,21.10
2022-08-23T00:50:23.417Z,21.10
2022-08-23T00:53:15.422Z,21.10
2022-08-23T00:55:45.472Z,21.10
2022-08-23T00:58:15.419Z,21.10
2022-08-23T01:00:42.469Z,21.10
2022-08-23T01:03:11.481Z,21.10
2022-08-23T01:05:57.195Z,21.10
2022-08-23T01:08:27.244Z,21.10
2022-08-23T01:11:00.572Z,21.10
2022-08-23T01:13:48.838Z,21.00
2022-08-23T01:16:28.051Z,21.00
2022-08-23T01:18:55.999Z,21.00
2022-08-23T01:21:38.474Z,21.00
2022-08-23T01:24:10.598Z,21.00
2022-08-23T01:26:48.031Z,21.10
2022-08-23T01:29:16.922Z,21.00
2022-08-23T01:31:44.534Z,21.10
2022-08-23T01:34:13.964Z,21.10
2022-08-23T01:36:43.449Z,21.00
2022-08-23T01:39:11.133Z,21.00
2022-08-23T01:41:38.833Z,21.00
2022-08-23T01:44:07.411Z,21.00
2022-08-23T01:46:34.718Z,20.90
2022-08-23T01:49:08.037Z,20.90
2022-08-23T01:51:35.351Z,20.90
2022-08-23T01:54:02.284Z,20.90
2022-08-23T01:56:38.681Z,20.80
2022-08-23T01:59:08.814Z,20.80
2022-08-23T02:01:36.569Z,20.70
2022-08-23T02:04:05.226Z,20.70
2022-08-23T02:06:33.035Z,20.70
2022-08-23T02:09:03.588Z,20.70
2022-08-23T02:11:37.210Z,20.60
2022-08-23T02:14:11.314Z,20.60
2022-08-23T02:16:53.728Z,20.50
2022-08-23T02:19:33.233Z,20.60
2022-08-23T02:22:00.451Z,20.50
2022-08-23T02:24:27.484Z,20.50
2022-08-23T02:26:57.250Z,20.50
2022-08-23T02:29:25.530Z,20.50
2022-08-23T02:31:53.152Z,20.40
2022-08-23T02:34:20.955Z,20.40
2022-08-23T02:36:48.536Z,20.40
2022-08-23T02:39:17.368Z,20.30
2022-08-23T02:41:45.220Z,20.40
2022-08-23T02:44:13.418Z,20.30
2022-08-23T02:46:41.977Z,20.30
2022-08-23T02:49:09.690Z,20.30
2022-08-23T02:51:37.169Z,20.20
2022-08-23T02:54:04.596Z,20.20
2022-08-23T02:56:31.959Z,20.20
2022-08-23T02:58:58.884Z,20.10
2022-08-23T03:01:34.417Z,20.20
2022-08-23T03:04:02.823Z,20.10
2022-08-23T03:06:29.792Z,20.10
2022-08-23T03:08:56.895Z,20.10
2022-08-23T03:11:25.249Z,20.10
2022-08-23T03:13:53.035Z,20.10
2022-08-23T03:16:20.857Z,20.10
2022-08-23T03:18:48.785Z,20.00
2022-08-23T03:21:16.582Z,20.00
2022-08-23T03:23:43.559Z,20.00
2022-08-23T03:26:13.584Z,19.90
2022-08-23T03:28:42.173Z,19.90
2022-08-23T03:31:09.783Z,19.90
2022-08-23T03:33:37.287Z,19.90
2022-08-23T03:36:07.448Z,19.90
2022-08-23T03:38:34.771Z,19.90
2022-08-23T03:41:02.002Z,19.80
2022-08-23T03:43:29.486Z,19.80
2022-08-23T03:45:56.664Z,19.80
2022-08-23T03:48:24.869Z,19.80
2022-08-23T03:50:54.675Z,19.70
2022-08-23T03:53:23.720Z,19.70
2022-08-23T03:55:52.390Z,19.70
2022-08-23T03:58:20.610Z,19.60
2022-08-23T04:00:47.478Z,19.60
2022-08-23T04:03:17.247Z,19.60
2022-08-23T04:05:44.228Z,19.60
2022-08-23T04:08:11.800Z,19.50
2022-08-23T04:10:39.318Z,19.50
2022-08-23T04:13:08.514Z,19.50
2022-08-23T04:15:36.207Z,19.50
2022-08-23T04:18:04.325Z,19.50
2022-08-23T04:20:31.648Z,19.50
2022-08-23T04:22:59.038Z,19.50
2022-08-23T04:25:33.313Z,19.50
2022-08-23T04:28:01.887Z,19.50
2022-08-23T04:30:29.293Z,19.60
2022-08-23T04:32:58.584Z,19.60
2022-08-23T04:35:26.142Z,19.60
2022-08-23T04:37:53.867Z,19.70
2022-08-23T04:40:39.393Z,19.70
2022-08-23T04:43:08.656Z,19.70
2022-08-23T04:45:39.348Z,19.70
2022-08-23T04:48:10.444Z,19.60
2022-08-23T04:50:39.399Z,19.60
2022-08-23T04:53:06.420Z,19.60
2022-08-23T04:55:36.294Z,19.60
2022-08-23T04:58:04.831Z,19.60
2022-08-23T05:00:31.924Z,19.60
2022-08-23T05:02:58.790Z,19.50
2022-08-23T05:05:27.643Z,19.60
2022-08-23T05:07:55.276Z,19.50
2022-08-23T05:10:24.394Z,19.50
2022-08-23T05:12:51.379Z,19.50
2022-08-23T05:15:18.310Z,19.50
2022-08-23T05:17:45.092Z,19.50
2022-08-23T05:20:12.361Z,19.50
2022-08-23T05:22:41.394Z,19.50
2022-08-23T05:25:09.068Z,19.50
2022-08-23T05:27:36.462Z,19.40
2022-08-23T05:30:04.679Z,19.50
2022-08-23T05:32:33.692Z,19.50
2022-08-23T05:35:00.866Z,19.50
2022-08-23T05:37:27.888Z,19.50
2022-08-23T05:39:54.911Z,19.50
2022-08-23T05:42:21.786Z,19.50
2022-08-23T05:44:48.576Z,19.50
2022-08-23T05:47:16.492Z,19.60
2022-08-23T05:49:44.368Z,19.60
2022-08-23T05:52:13.651Z,19.70
2022-08-23T05:54:41.128Z,19.80
2022-08-23T05:57:08.306Z,19.80
2022-08-23T05:59:35.555Z,19.80
2022-08-23T06:02:02.979Z,19.90
2022-08-23T06:04:29.865Z,20.00
2022-08-23T06:06:59.012Z,20.10
2022-08-23T06:09:26.429Z,20.10
2022-08-23T06:11:54.073Z,20.20
2022-08-23T06:14:21.265Z,20.30
2022-08-23T06:16:53.672Z,20.30
2022-08-23T06:19:22.933Z,20.40
2022-08-23T06:21:51.130Z,20.40
2022-08-23T06:24:18.062Z,20.40
2022-08-23T06:26:45.732Z,20.50
2022-08-23T06:29:17.464Z,20.60
2022-08-23T06:31:48.026Z,20.60
2022-08-23T06:34:33.491Z,20.70
2022-08-23T06:37:04.750Z,20.70
2022-08-23T06:39:36.893Z,20.80
2022-08-23T06:42:36.523Z,20.90
2022-08-23T06:44:57.777Z,21.00
2022-08-23T06:47:25.248Z,21.00
2022-08-23T06:49:57.645Z,21.10
2022-08-23T06:52:27.330Z,21.10
2022-08-23T06:54:57.731Z,21.20
2022-08-23T06:57:24.801Z,21.20
2022-08-23T06:59:51.625Z,21.20
2022-08-23T07:02:18.966Z,21.20
2022-08-23T07:04:46.371Z,21.30
2022-08-23T07:07:13.701Z,21.20
2022-08-23T07:09:41.597Z,21.20
2022-08-23T07:12:09.488Z,21.30
2022-08-23T07:14:37.643Z,21.40
2022-08-23T07:17:05.576Z,21.30
2022-08-23T07:19:34.792Z,21.50
2022-08-23T07:22:03.429Z,21.40
2022-08-23T07:24:33.570Z,21.50
2022-08-23T07:27:06.386Z,21.60
2022-08-23T07:29:35.387Z,21.60
2022-08-23T07:32:02.996Z,21.60
2022-08-23T07:34:30.617Z,21.70
2022-08-23T07:36:57.971Z,21.70
2022-08-23T07:39:26.572Z,21.80
2022-08-23T07:41:54.066Z,21.80
2022-08-23T07:44:24.464Z,21.90
2022-08-23T07:46:55.140Z,21.90
2022-08-23T07:49:23.015Z,21.90
2022-08-23T07:51:58.754Z,22.00
2022-08-23T07:54:25.818Z,22.00
2022-08-23T07:56:53.157Z,22.10
2022-08-23T07:59:20.515Z,22.10
2022-08-23T08:01:47.324Z,22.20
2022-08-23T08:04:14.768Z,22.20
2022-08-23T08:07:04.935Z,22.20
2022-08-23T08:09:35.554Z,22.30
2022-08-23T08:12:02.466Z,22.30
2022-08-23T08:14:31.612Z,22.30
2022-08-23T08:17:00.913Z,22.40
2022-08-23T08:19:28.670Z,22.40
2022-08-23T08:21:55.948Z,22.50
2022-08-23T08:24:23.356Z,22.50
2022-08-23T08:26:50.422Z,22.60
2022-08-23T08:29:18.033Z,22.60
2022-08-23T08:31:51.327Z,22.60
2022-08-23T08:34:20.497Z,22.60
2022-08-23T08:36:56.236Z,22.70
2022-08-23T08:39:30.445Z,22.70
2022-08-23T08:42:27.931Z,22.70
2022-08-23T08:44:55.128Z,22.70
2022-08-23T08:47:35.976Z,22.80
2022-08-23T08:50:07.581Z,22.90
2022-08-23T08:52:43.712Z,22.90
2022-08-23T08:55:18.374Z,22.90
2022-08-23T08:57:48.200Z,22.90
2022-08-23T09:00:25.592Z,22.90
2022-08-23T09:02:53.290Z,23.00
2022-08-23T09:05:31.773Z,23.00
2022-08-23T09:08:29.329Z,23.10
2022-08-23T09:11:14.774Z,23.20
2022-08-23T09:14:01.232Z,23.20
2022-08-23T09:16:50.624Z,23.30
2022-08-23T09:19:19.137Z,23.30
2022-08-23T09:21:59.403Z,23.30
2022-08-23T09:24:28.088Z,23.40
2022-08-23T09:26:56.177Z,23.50
2022-08-23T09:29:29.446Z,23.50
2022-08-23T09:32:04.638Z,23.60
2022-08-23T09:34:37.758Z,23.60
2022-08-23T09:37:13.814Z,23.60
2022-08-23T09:39:47.411Z,23.70
2022-08-23T09:42:37.499Z,23.80
2022-08-23T09:45:33.108Z,23.80
2022-08-23T09:48:02.712Z,23.80
2022-08-23T09:50:36.085Z,23.90
2022-08-23T09:53:09.290Z,23.90
2022-08-23T09:55:42.018Z,23.90
2022-08-23T09:58:26.442Z,23.90
2022-08-23T10:01:18.278Z,24.00
2022-08-23T10:03:46.340Z,24.00
2022-08-23T10:06:31.050Z,24.10
2022-08-23T10:09:04.445Z,24.10
2022-08-23T10:11:47.615Z,24.20
2022-08-23T10:14:17.740Z,24.30
2022-08-23T10:17:07.802Z,24.30
2022-08-23T10:19:44.310Z,24.30
2022-08-23T10:22:23.532Z,24.30
2022-08-23T10:25:33.231Z,24.40
2022-08-23T10:28:49.767Z,24.40
2022-08-23T10:31:23.085Z,24.40
2022-08-23T10:34:27.274Z,24.40
2022-08-23T10:37:18.407Z,24.40
2022-08-23T10:40:17.553Z,24.50
2022-08-23T10:43:27.281Z,24.50
2022-08-23T10:46:00.758Z,24.60
2022-08-23T10:48:32.078Z,24.60
2022-08-23T10:51:04.675Z,24.60
2022-08-23T10:53:46.755Z,24.60
2022-08-23T10:56:21.233Z,24.70
2022-08-23T10:59:09.244Z,24.70
2022-08-23T11:02:16.776Z,24.80
2022-08-23T11:05:02.703Z,24.80
2022-08-23T11:07:41.387Z,24.70
2022-08-23T11:10:25.057Z,24.80
2022-08-23T11:13:06.133Z,24.70
2022-08-23T11:15:44.579Z,24.70
2022-08-23T11:18:36.776Z,24.80
2022-08-23T11:21:06.898Z,24.80
2022-08-23T11:24:15.016Z,24.80
2022-08-23T11:26:44.917Z,24.90
2022-08-23T11:29:21.109Z,24.90
2022-08-23T11:32:00.594Z,25.00
2022-08-23T11:35:09.326Z,25.10
2022-08-23T11:37:57.265Z,25.10
2022-08-23T11:41:11.255Z,25.20
2022-08-23T11:43:40.304Z,25.20
2022-08-23T11:46:28.791Z,25.20
2022-08-23T11:49:13.613Z,25.20
2022-08-23T11:52:02.044Z,25.30
2022-08-23T11:55:14.043Z,25.30
2022-08-23T11:58:12.300Z,25.50
2022-08-23T12:01:03.051Z,25.50
2022-08-23T12:03:36.112Z,25.50
2022-08-23T12:06:03.476Z,25.60
2022-08-23T12:08:45.539Z,25.70
2022-08-23T12:11:12.680Z,25.80
2022-08-23T12:14:17.792Z,25.90
2022-08-23T12:16:49.965Z,25.90
2022-08-23T12:19:35.787Z,25.90
2022-08-23T12:22:12.809Z,26.00
2022-08-23T12:24:52.351Z,25.90
2022-08-23T12:27:38.721Z,25.90
2022-08-23T12:30:42.442Z,26.10
2022-08-23T12:33:43.952Z,26.20
2022-08-23T12:36:25.958Z,26.20
2022-08-23T12:38:58.547Z,26.40
2022-08-23T12:41:28.414Z,26.50
2022-08-23T12:44:08.031Z,26.60
2022-08-23T12:46:43.675Z,26.60
2022-08-23T12:49:28.292Z,26.60
2022-08-23T12:52:00.606Z,26.60
2022-08-23T12:54:36.437Z,26.80
2022-08-23T12:57:10.439Z,26.80
2022-08-23T13:00:16.393Z,26.80
2022-08-23T13:03:03.361Z,26.80
2022-08-23T13:05:52.233Z,26.90
2022-08-23T13:08:41.058Z,27.00
2022-08-23T13:11:10.632Z,27.10
2022-08-23T13:13:40.670Z,27.20
2022-08-23T13:16:33.588Z,27.10
2022-08-23T13:19:13.732Z,27.20
2022-08-23T13:21:40.638Z,27.30
2022-08-23T13:24:30.030Z,27.30
2022-08-23T13:27:49.965Z,27.30
2022-08-23T13:30:18.025Z,27.40
2022-08-23T13:32:48.127Z,27.50
2022-08-23T13:35:30.303Z,27.50
2022-08-23T13:38:21.860Z,27.60
2022-08-23T13:41:02.865Z,27.50
2022-08-23T13:43:39.011Z,27.50
2022-08-23T13:46:15.045Z,27.50
2022-08-23T13:49:06.270Z,27.60
2022-08-23T13:51:38.853Z,27.60
2022-08-23T13:54:14.096Z,27.60
2022-08-23T13:56:44.804Z,27.60
2022-08-23T13:59:31.955Z,27.70
2022-08-23T14:02:06.767Z,27.70
2022-08-23T14:04:34.479Z,27.80
2022-08-23T14:07:01.155Z,27.80
2022-08-23T14:09:28.392Z,27.80
2022-08-23T14:11:59.149Z,27.90
2022-08-23T14:14:30.218Z,28.00
2022-08-23T14:17:02.072Z,27.90
2022-08-23T14:22:19.236Z,28.00
2022-08-23T14:24:46.022Z,28.00
2022-08-23T14:27:13.002Z,28.00
2022-08-23T14:29:42.458Z,28.00
2022-08-23T14:32:09.330Z,28.10
2022-08-23T14:34:36.568Z,28.10
2022-08-23T14:39:51.023Z,28.20
2022-08-23T14:42:21.215Z,28.30
2022-08-23T14:44:48.207Z,28.40
2022-08-23T14:47:15.067Z,28.40
2022-08-23T14:49:41.981Z,28.40
2022-08-23T14:52:09.588Z,28.50
2022-08-23T14:54:36.951Z,28.60
2022-08-23T14:57:04.102Z,28.70
2022-08-23T14:59:30.928Z,28.70
2022-08-23T15:01:58.522Z,28.80
2022-08-23T15:04:25.937Z,28.90
2022-08-23T15:07:19.275Z,28.90
2022-08-23T15:09:52.616Z,29.00
2022-08-23T15:15:12.693Z,29.30
2022-08-23T15:17:56.581Z,29.30
2022-08-23T15:20:33.599Z,29.40
2022-08-23T15:23:00.902Z,29.50
2022-08-23T15:25:34.132Z,29.60
2022-08-23T15:28:03.972Z,29.70
2022-08-23T15:30:33.311Z,29.70
2022-08-23T15:33:01.026Z,29.80
2022-08-23T15:35:29.694Z,29.90
2022-08-23T15:37:57.440Z,29.90
2022-08-23T15:40:25.650Z,30.00
2022-08-23T15:42:53.199Z,29.90
2022-08-23T15:45:20.723Z,30.00
2022-08-23T15:47:54.858Z,30.00
2022-08-23T15:50:25.881Z,30.00
2022-08-23T15:52:53.038Z,30.00
2022-08-23T15:55:21.051Z,30.10
2022-08-23T15:57:53.537Z,30.20
2022-08-23T16:00:23.099Z,30.20
2022-08-23T16:03:18.286Z,30.20
2022-08-23T16:05:39.575Z,30.20
2022-08-23T16:08:08.086Z,30.20
2022-08-23T16:10:35.161Z,30.20
2022-08-23T16:13:03.496Z,30.20
2022-08-23T16:15:31.026Z,30.20
2022-08-23T16:17:57.937Z,30.20
2022-08-23T16:20:25.559Z,30.20
2022-08-23T16:22:52.559Z,30.20
2022-08-23T16:25:19.508Z,30.20
2022-08-23T16:27:46.685Z,30.20
2022-08-23T16:30:14.897Z,30.20
2022-08-23T16:32:42.148Z,30.00
2022-08-23T16:35:10.169Z,30.00
2022-08-23T16:37:37.591Z,30.10
2022-08-23T16:40:08.354Z,30.10
2022-08-23T16:42:35.266Z,30.10
2022-08-23T16:45:02.289Z,30.10
2022-08-23T16:47:32.296Z,30.10
2022-08-23T16:49:59.618Z,30.00
2022-08-23T16:52:28.758Z,30.00
2022-08-23T16:55:04.596Z,30.00
2022-08-23T16:57:31.455Z,30.10
2022-08-23T16:59:58.316Z,30.10
2022-08-23T17:02:34.721Z,29.90
2022-08-23T17:05:02.402Z,29.90
2022-08-23T17:07:29.664Z,29.80
2022-08-23T17:09:56.822Z,29.80
2022-08-23T17:12:23.582Z,29.70
2022-08-23T17:14:51.571Z,29.60
2022-08-23T17:17:18.955Z,29.60
2022-08-23T17:19:45.902Z,29.50
2022-08-23T17:22:13.521Z,29.50
2022-08-23T17:24:40.779Z,29.40
2022-08-23T17:27:08.195Z,29.40
2022-08-23T17:29:37.460Z,29.30
2022-08-23T17:32:05.377Z,29.30
2022-08-23T17:34:32.119Z,29.20
2022-08-23T17:36:59.716Z,29.20
2022-08-23T17:39:29.194Z,29.10
2022-08-23T17:41:57.880Z,29.10
2022-08-23T17:44:24.868Z,29.00
2022-08-23T17:46:52.102Z,29.00
2022-08-23T17:49:19.728Z,29.00
2022-08-23T17:51:47.268Z,28.90
2022-08-23T17:54:16.373Z,28.80
2022-08-23T17:56:50.478Z,28.80
2022-08-23T17:59:19.513Z,28.80
2022-08-23T18:01:46.563Z,28.70
2022-08-23T18:04:13.521Z,28.60
2022-08-23T18:06:40.638Z,28.60
2022-08-23T18:09:07.896Z,28.60
2022-08-23T18:11:36.065Z,28.50
2022-08-23T18:14:03.545Z,28.40
2022-08-23T18:16:35.263Z,28.40
2022-08-23T18:19:04.854Z,28.40
2022-08-23T18:21:31.742Z,28.30
2022-08-23T18:23:59.393Z,28.20
2022-08-23T18:26:46.279Z,28.20
2022-08-23T18:29:14.654Z,28.10
2022-08-23T18:31:43.836Z,28.00
2022-08-23T18:34:12.646Z,28.00
2022-08-23T18:36:39.674Z,27.90
2022-08-23T18:39:08.623Z,27.90
2022-08-23T18:41:35.920Z,27.80
2022-08-23T18:44:05.475Z,27.70
2022-08-23T18:46:33.925Z,27.60
2022-08-23T18:49:01.299Z,27.60
2022-08-23T18:51:28.438Z,27.60
2022-08-23T18:53:55.690Z,27.50
2022-08-23T18:56:22.848Z,27.50
2022-08-23T18:58:49.951Z,27.40
2022-08-23T19:01:26.685Z,27.30
2022-08-23T19:03:55.525Z,27.30
2022-08-23T19:06:23.522Z,27.20
2022-08-23T19:08:51.686Z,27.20
2022-08-23T19:11:20.022Z,27.20
2022-08-23T19:13:47.495Z,27.10
2022-08-23T19:16:16.132Z,27.00
2022-08-23T19:18:45.027Z,27.00
2022-08-23T19:21:14.566Z,26.90
2022-08-23T19:23:42.203Z,26.80
2022-08-23T19:26:11.021Z,26.80
2022-08-23T19:28:38.403Z,26.70
2022-08-23T19:31:05.459Z,26.70
2022-08-23T19:33:32.741Z,26.70
2022-08-23T19:35:59.644Z,26.70
2022-08-23T19:38:27.903Z,26.60
2022-08-23T19:40:56.233Z,26.60
2022-08-23T19:43:24.041Z,26.50
2022-08-23T19:45:51.253Z,26.50
2022-08-23T19:48:19.290Z,26.40
2022-08-23T19:50:47.626Z,26.40
2022-08-23T19:53:15.877Z,26.30
2022-08-23T19:55:45.128Z,26.30
2022-08-23T19:58:14.149Z,26.30
2022-08-23T20:00:41.630Z,26.20
2022-08-23T20:03:08.780Z,26.10
2022-08-23T20:05:36.305Z,26.10
2022-08-23T20:08:03.906Z,26.00
2022-08-23T20:10:30.695Z,26.00
2022-08-23T20:12:58.121Z,26.00
2022-08-23T20:15:25.503Z,25.90
2022-08-23T20:17:52.934Z,25.90
2022-08-23T20:20:19.946Z,25.80
2022-08-23T20:23:05.693Z,25.80
2022-08-23T20:25:32.527Z,25.70
2022-08-23T20:27:59.939Z,25.70
2022-08-23T20:30:27.476Z,25.70
2022-08-23T20:32:54.995Z,25.60
2022-08-23T20:35:24.671Z,25.60
2022-08-23T20:37:51.832Z,25.50
2022-08-23T20:40:19.197Z,25.50
2022-08-23T20:42:46.648Z,25.50
2022-08-23T20:45:13.940Z,25.40
2022-08-23T20:47:41.310Z,25.40
2022-08-23T20:50:08.752Z,25.30
2022-08-23T20:52:36.296Z,25.30
2022-08-23T20:55:04.208Z,25.30
2022-08-23T20:57:38.652Z,25.20
2022-08-23T21:00:07.571Z,25.20
2022-08-23T21:02:34.527Z,25.20
2022-08-23T21:05:01.821Z,25.20
2022-08-23T21:07:31.646Z,25.10
2022-08-23T21:09:58.467Z,25.00
2022-08-23T21:12:27.730Z,25.00
2022-08-23T21:14:56.701Z,25.00
2022-08-23T21:17:23.523Z,25.00
2022-08-23T21:19:50.362Z,24.90
2022-08-23T21:22:17.173Z,24.90
2022-08-23T21:24:44.022Z,24.90
2022-08-23T21:27:10.902Z,24.80
2022-08-23T21:29:38.562Z,24.80
2022-08-23T21:32:06.838Z,24.80
2022-08-23T21:34:33.982Z,24.80
2022-08-23T21:37:00.930Z,24.80
2022-08-23T21:39:27.819Z,24.70
2022-08-23T21:41:56.154Z,24.80
2022-08-23T21:44:24.648Z,24.80
2022-08-23T21:46:51.519Z,24.70
2022-08-23T21:49:21.071Z,24.70
2022-08-23T21:51:49.106Z,24.60
2022-08-23T21:54:18.283Z,24.60
2022-08-23T21:56:45.899Z,24.60
2022-08-23T21:59:16.773Z,24.60
2022-08-23T22:01:44.662Z,24.50
2022-08-23T22:04:13.002Z,24.50
2022-08-23T22:06:42.520Z,24.50
2022-08-23T22:09:13.684Z,24.50
2022-08-23T22:11:42.322Z,24.50
2022-08-23T22:14:13.452Z,24.40
2022-08-23T22:16:41.385Z,24.40
2022-08-23T22:19:08.166Z,24.30
2022-08-23T22:21:35.625Z,24.30
2022-08-23T22:24:03.135Z,24.20
2022-08-23T22:26:29.929Z,24.30
2022-08-23T22:28:57.203Z,24.30
2022-08-23T22:31:24.251Z,24.20
2022-08-23T22:33:51.759Z,24.20
2022-08-23T22:36:22.100Z,24.10
2022-08-23T22:38:49.937Z,24.10
2022-08-23T22:41:19.593Z,24.00
2022-08-23T22:43:47.005Z,24.00
2022-08-23T22:46:14.366Z,24.00
2022-08-23T22:48:41.294Z,24.00
2022-08-23T22:51:17.215Z,24.00
2022-08-23T22:53:50.076Z,24.00
2022-08-23T22:56:37.864Z,24.00
2022-08-23T22:59:05.862Z,24.00
2022-08-23T23:01:34.977Z,23.90
2022-08-23T23:04:04.295Z,23.90
2022-08-23T23:06:31.844Z,24.00
2022-08-23T23:09:00.939Z,23.90
2022-08-23T23:11:28.324Z,23.90
2022-08-23T23:13:56.724Z,23.90
2022-08-23T23:16:26.741Z,23.80
2022-08-23T23:19:12.327Z,23.80
2022-08-23T23:21:45.813Z,23.80
2022-08-23T23:24:16.552Z,23.70
2022-08-23T23:26:47.545Z,23.70
2022-08-23T23:29:15.039Z,23.70
2022-08-23T23:31:44.582Z,23.70
2022-08-23T23:34:12.139Z,23.70
2022-08-23T23:36:42.747Z,23.70
2022-08-23T23:39:11.196Z,23.70
2022-08-23T23:41:38.146Z,23.60
2022-08-23T23:44:08.102Z,23.60
2022-08-23T23:46:35.183Z,23.60
2022-08-23T23:49:02.103Z,23.60
2022-08-23T23:51:31.467Z,23.50
2022-08-23T23:54:00.927Z,23.50
2022-08-23T23:56:29.923Z,23.50
2022-08-23T23:58:58.676Z,23.40
